Hovedside
METAR-TAF:

METAR-TAF

Lufthavner :

Molde, Norge

Molde lufthavn

breddegrad: 62-45N, lengdegrad: 007-16E, høyde over havet: 0 m

Gjeldene værobservasjon

Denne rapporten ble laget for 29 minutter siden, klokken 18:50 UTC
Vind 5 kt fra Vest
Temperatur 20°C
Luftfuktighet 60%
Trykk 1011 hPa
Sikt 10 km eller mer

METAR: ENML 271850Z AUTO 26005KT 9999NDV NCD 20/12 Q1011

Tid: 21:19 (19:19 UTC)

Varsel

Denne rapporten ble laget for 5 timer og 19 minutter siden, klokken 14:00 UTC
Varsel gyldig fra 27. klokken 15 UTC til 27. klokken 18 UTC
Vind 6 kt fra skiftende retning
Sikt 10 km eller mer
ingen skyer under 1500 m og ingen bygeskyer

TAF: ENML 271400Z 2715/2718 VRB06KT CAVOK

Værobservasjoner og værvarsel for over 4000 flyplasser (METAR- og TAF-rapporter).

Tilgjengelige stasjoner er representert av de røde og gule prikkene på kartet.

Hold musepekeren over prikken for å se navnet på stasjonen.

Klikk så for å se værobservasjoner og -varsler.

For å forandre kartet kan du klikke på den grønne knappen med svart kryss for å zoome inn, på den grønne knappen med strek for å zoome ut, eller på de grønne pilene for å se tilstøtende kart.


METAR-TAF: